Time;durP1;ratioP1;P1;durP2;ratioP2;P2;SDS_P1;SDS_P2;PMS_P1;PMS_P2;Temp;Humidity;BMP_temperature;BMP_pressure;BME280_temperature;BME280_humidity;BME280_pressure;Samples;Min_cycle;Max_cycle;Signal;HPM_P1;HPM_P2
2022/01/08 00:02:03;;;;;;;;;;;;;;;;;;5014470;28;19913;-27
2022/01/08 00:04:29;;;;;;;;;;;;;;;;;;5015842;28;20362;-27
2022/01/08 00:06:56;;;;;;;;;;;;;;;;;;5015583;28;19921;-27
2022/01/08 00:09:22;;;;;;;;;;;;;;;;;;5015573;28;20407;-28
2022/01/08 00:11:48;;;;;;;;;;;;;;;;;;5015458;28;19917;-27
2022/01/08 00:14:15;;;;;;;;;;;;;;;;;;5015467;28;19917;-27
2022/01/08 00:16:41;;;;;;;;;;;;;;;;;;5015464;28;19923;-27
2022/01/08 00:19:07;;;;;;;;;;;;;;;;;;5015679;28;19972;-27
2022/01/08 00:21:33;;;;;;;;;;;;;;;;;;5015415;28;20309;-27
2022/01/08 00:23:59;;;;;;;;;;;;;;;;;;5015490;28;20292;-27
2022/01/08 00:26:25;;;;;;;;;;;;;;;;;;5015239;28;19931;-27
2022/01/08 00:28:51;;;;;;;;;;;;;;;;;;5015472;28;19983;-27
2022/01/08 00:31:17;;;;;;;;;;;;;;;;;;5014322;28;19909;-27
2022/01/08 00:33:43;;;;;;;;;;;;;;;;;;5015175;28;19967;-27
2022/01/08 00:36:09;;;;;;;;;;;;;;;;;;5015434;28;20000;-27
2022/01/08 00:38:35;;;;;;;;;;;;;;;;;;5015358;28;20263;-27
2022/01/08 00:41:01;;;;;;;;;;;;;;;;;;5015106;28;19919;-27
2022/01/08 00:43:27;;;;;;;;;;;;;;;;;;5015248;28;19917;-27
2022/01/08 00:45:53;;;;;;;;;;;;;;;;;;5014099;28;19971;-27
2022/01/08 00:48:19;;;;;;;;;;;;;;;;;;5015324;28;19951;-27
2022/01/08 00:50:45;;;;;;;;;;;;;;;;;;5015018;28;19944;-27
2022/01/08 00:53:11;;;;;;;;;;;;;;;;;;5014993;28;20008;-27
2022/01/08 00:55:37;;;;;;;;;;;;;;;;;;5015008;28;19923;-27
2022/01/08 00:58:03;;;;;;;;;;;;;;;;;;5014984;28;19924;-27
2022/01/08 01:00:29;;;;;;;;;;;;;;;;;;5014921;28;19964;-27
2022/01/08 01:02:55;;;;;;;;;;;;;;;;;;5014789;28;19917;-27
2022/01/08 01:05:21;;;;;;;;;;;;;;;;;;5013898;28;20348;-27
2022/01/08 01:07:47;;;;;;;;;;;;;;;;;;5014721;28;19920;-27
2022/01/08 01:10:13;;;;;;;;;;;;;;;;;;5014839;28;19913;-27
2022/01/08 01:12:39;;;;;;;;;;;;;;;;;;5014784;28;19964;-27
2022/01/08 01:15:05;;;;;;;;;;;;;;;;;;5017680;28;19979;-27
2022/01/08 01:17:31;;;;;;;;;;;;;;;;;;5018662;28;20417;-27
2022/01/08 01:19:57;;;;;;;;;;;;;;;;;;5018661;28;19914;-27
2022/01/08 01:22:28;;;;;;;;;;;;;;;;;;5018609;28;19992;-27
2022/01/08 01:25:01;;;;;;;;;;;;;;;;;;5018470;28;19928;-27
2022/01/08 01:27:55;;;;;;;;;;;;;;;;;;5018529;28;19909;-27
2022/01/08 01:30:28;;;;;;;;;;;;;;;;;;5018591;28;19969;-27
2022/01/08 01:41:21;;;;;;;;;;;;;;;;;;5018334;28;19924;-27
2022/01/08 01:49:04;;;;;;;;;;;;;;;;;;5018561;28;19933;-27
2022/01/08 01:51:30;;;;;;;;;;;;;;;;;;5018064;28;20344;-27
2022/01/08 01:53:56;;;;;;;;;;;;;;;;;;5017980;28;20363;-27
2022/01/08 01:56:22;;;;;;;;;;;;;;;;;;5017820;28;19918;-27
2022/01/08 01:58:48;;;;;;;;;;;;;;;;;;5018212;28;19917;-27
2022/01/08 02:01:14;;;;;;;;;;;;;;;;;;5017931;28;19914;-27
2022/01/08 02:03:40;;;;;;;;;;;;;;;;;;5017726;28;19929;-27
2022/01/08 02:06:06;;;;;;;;;;;;;;;;;;5018109;28;19918;-27
2022/01/08 02:08:32;;;;;;;;;;;;;;;;;;5017776;28;19914;-28
2022/01/08 02:10:58;;;;;;;;;;;;;;;;;;5018041;28;19993;-27
2022/01/08 02:13:24;;;;;;;;;;;;;;;;;;5016683;28;19910;-27
2022/01/08 02:15:53;;;;;;;;;;;;;;;;;;5017610;28;19967;-27
2022/01/08 02:18:19;;;;;;;;;;;;;;;;;;5017619;28;20000;-27
2022/01/08 02:20:45;;;;;;;;;;;;;;;;;;5017832;28;19936;-27
2022/01/08 02:23:11;;;;;;;;;;;;;;;;;;5017411;28;19924;-28
2022/01/08 02:25:36;;;;;;;;;;;;;;;;;;5016306;28;19924;-27
2022/01/08 02:28:02;;;;;;;;;;;;;;;;;;5017717;28;19917;-27
2022/01/08 02:30:29;;;;;;;;;;;;;;;;;;5017584;28;19917;-27
2022/01/08 02:32:55;;;;;;;;;;;;;;;;;;5016241;28;19979;-27
2022/01/08 02:35:22;;;;;;;;;;;;;;;;;;5017595;28;19936;-27
2022/01/08 02:37:48;;;;;;;;;;;;;;;;;;5017482;28;20289;-27
2022/01/08 02:40:14;;;;;;;;;;;;;;;;;;5017478;28;19916;-27
2022/01/08 02:42:50;;;;;;;;;;;;;;;;;;5017238;28;20225;-27
2022/01/08 02:45:17;;;;;;;;;;;;;;;;;;5017427;28;19960;-27
2022/01/08 02:47:43;;;;;;;;;;;;;;;;;;5017333;28;19914;-27
2022/01/08 02:50:09;;;;;;;;;;;;;;;;;;5017341;28;19914;-27
2022/01/08 02:52:35;;;;;;;;;;;;;;;;;;5016895;28;20352;-27
2022/01/08 02:55:01;;;;;;;;;;;;;;;;;;5016895;28;19967;-27
2022/01/08 02:57:27;;;;;;;;;;;;;;;;;;5016719;28;19917;-27
2022/01/08 02:59:53;;;;;;;;;;;;;;;;;;5016903;28;20406;-27
2022/01/08 03:02:19;;;;;;;;;;;;;;;;;;5016933;28;19913;-27
2022/01/08 03:04:46;;;;;;;;;;;;;;;;;;5016949;28;19924;-27
2022/01/08 03:07:12;;;;;;;;;;;;;;;;;;5016649;28;19920;-28
2022/01/08 03:09:41;;;;;;;;;;;;;;;;;;5016949;28;20013;-27
2022/01/08 03:12:07;;;;;;;;;;;;;;;;;;5016812;28;19927;-27
2022/01/08 03:14:33;;;;;;;;;;;;;;;;;;5016520;28;19913;-27
2022/01/08 03:16:59;;;;;;;;;;;;;;;;;;5016474;28;20417;-27
2022/01/08 03:19:25;;;;;;;;;;;;;;;;;;5016425;28;19921;-27
2022/01/08 03:21:55;;;;;;;;;;;;;;;;;;5016593;28;19913;-27
2022/01/08 03:24:28;;;;;;;;;;;;;;;;;;5016482;28;20419;-27
2022/01/08 03:26:55;;;;;;;;;;;;;;;;;;5016592;28;19909;-27
2022/01/08 03:29:21;;;;;;;;;;;;;;;;;;5016284;28;19921;-27
2022/01/08 03:31:47;;;;;;;;;;;;;;;;;;5016398;28;19932;-27
2022/01/08 03:34:13;;;;;;;;;;;;;;;;;;5016230;28;19936;-27
2022/01/08 03:36:39;;;;;;;;;;;;;;;;;;5015881;28;19913;-27
2022/01/08 03:39:05;;;;;;;;;;;;;;;;;;5016093;28;19913;-27
2022/01/08 03:41:31;;;;;;;;;;;;;;;;;;5015109;28;19913;-27
2022/01/08 03:43:57;;;;;;;;;;;;;;;;;;5015945;28;19964;-27
2022/01/08 03:46:27;;;;;;;;;;;;;;;;;;5015893;28;20317;-28
2022/01/08 03:51:28;;;;;;;;;;;;;;;;;;5015974;28;20267;-27
2022/01/08 03:53:54;;;;;;;;;;;;;;;;;;5016006;28;19916;-27
2022/01/08 03:56:20;;;;;;;;;;;;;;;;;;5015725;28;19928;-27
2022/01/08 03:58:46;;;;;;;;;;;;;;;;;;5015762;28;20004;-27
2022/01/08 04:01:12;;;;;;;;;;;;;;;;;;5015935;28;19996;-27
2022/01/08 04:03:38;;;;;;;;;;;;;;;;;;5015538;28;19971;-27
2022/01/08 04:06:04;;;;;;;;;;;;;;;;;;5015648;28;19921;-27
2022/01/08 04:08:30;;;;;;;;;;;;;;;;;;5015893;28;19921;-27
2022/01/08 04:10:56;;;;;;;;;;;;;;;;;;5015534;28;19913;-27
2022/01/08 04:13:26;;;;;;;;;;;;;;;;;;5016505;28;19920;-27
2022/01/08 04:15:57;;;;;;;;;;;;;;;;;;5015455;28;19914;-27
2022/01/08 04:18:23;;;;;;;;;;;;;;;;;;5015759;28;19988;-27
2022/01/08 04:23:22;;;;;;;;;;;;;;;;;;5015577;28;19914;-27
2022/01/08 04:25:48;;;;;;;;;;;;;;;;;;5014407;28;20530;-27
2022/01/08 04:28:14;;;;;;;;;;;;;;;;;;5015558;28;19913;-27
2022/01/08 04:30:40;;;;;;;;;;;;;;;;;;5015219;28;20333;-27
2022/01/08 04:33:06;;;;;;;;;;;;;;;;;;5015159;28;19916;-27
2022/01/08 04:35:32;;;;;;;;;;;;;;;;;;5015127;28;19941;-26
2022/01/08 04:37:58;;;;;;;;;;;;;;;;;;5015095;28;19919;-27
2022/01/08 04:40:24;;;;;;;;;;;;;;;;;;5015001;28;20374;-27
2022/01/08 04:42:50;;;;;;;;;;;;;;;;;;5014959;28;19993;-26
2022/01/08 04:45:16;;;;;;;;;;;;;;;;;;5015652;28;19952;-27
2022/01/08 04:47:43;;;;;;;;;;;;;;;;;;5015192;28;19913;-27
2022/01/08 04:50:12;;;;;;;;;;;;;;;;;;5014247;28;19913;-27
2022/01/08 04:52:38;;;;;;;;;;;;;;;;;;5014839;28;20004;-27
2022/01/08 04:55:04;;;;;;;;;;;;;;;;;;5015134;28;19949;-27
2022/01/08 04:57:30;;;;;;;;;;;;;;;;;;5014668;28;20004;-28
2022/01/08 04:59:56;;;;;;;;;;;;;;;;;;5014915;28;19914;-26
2022/01/08 05:02:21;;;;;;;;;;;;;;;;;;5014466;28;19913;-25
2022/01/08 05:04:47;;;;;;;;;;;;;;;;;;5014490;28;19945;-25
2022/01/08 05:07:13;;;;;;;;;;;;;;;;;;5013589;28;19968;-25
2022/01/08 05:09:39;;;;;;;;;;;;;;;;;;5014980;28;20229;-25
2022/01/08 05:12:05;;;;;;;;;;;;;;;;;;5014572;28;19996;-25
2022/01/08 05:14:31;;;;;;;;;;;;;;;;;;5014530;28;19920;-25
2022/01/08 05:17:00;;;;;;;;;;;;;;;;;;5014206;28;19913;-27
2022/01/08 05:19:40;;;;;;;;;;;;;;;;;;5014018;28;19964;-26
2022/01/08 05:22:07;;;;;;;;;;;;;;;;;;5013296;28;19913;-27
2022/01/08 05:24:33;;;;;;;;;;;;;;;;;;5015021;28;19939;-27
2022/01/08 05:26:59;;;;;;;;;;;;;;;;;;5014162;28;20008;-27
2022/01/08 05:29:25;;;;;;;;;;;;;;;;;;5014092;28;20000;-27
2022/01/08 05:31:52;;;;;;;;;;;;;;;;;;5014285;28;20000;-26
2022/01/08 05:34:18;;;;;;;;;;;;;;;;;;5013994;28;19921;-27
2022/01/08 05:36:44;;;;;;;;;;;;;;;;;;5013919;28;19913;-26
2022/01/08 05:39:10;;;;;;;;;;;;;;;;;;5014181;28;19916;-26
2022/01/08 05:41:36;;;;;;;;;;;;;;;;;;5014009;28;19914;-26
2022/01/08 05:44:02;;;;;;;;;;;;;;;;;;5013818;28;19925;-27
2022/01/08 05:46:28;;;;;;;;;;;;;;;;;;5013966;28;19917;-27
2022/01/08 05:49:00;;;;;;;;;;;;;;;;;;5014456;28;19909;-26
2022/01/08 05:51:26;;;;;;;;;;;;;;;;;;5014219;28;19925;-27
2022/01/08 05:53:52;;;;;;;;;;;;;;;;;;5013969;28;19914;-27
2022/01/08 05:56:18;;;;;;;;;;;;;;;;;;5013845;28;19917;-27
2022/01/08 05:58:44;;;;;;;;;;;;;;;;;;5014480;28;20237;-27
2022/01/08 06:01:10;;;;;;;;;;;;;;;;;;5016439;28;19910;-26
2022/01/08 06:03:36;;;;;;;;;;;;;;;;;;5017207;28;19983;-26
2022/01/08 06:06:01;;;;;;;;;;;;;;;;;;5016930;28;19913;-26
2022/01/08 06:08:27;;;;;;;;;;;;;;;;;;5017471;28;20016;-26
2022/01/08 06:10:53;;;;;;;;;;;;;;;;;;5017044;28;19914;-26
2022/01/08 06:13:19;;;;;;;;;;;;;;;;;;5016995;28;20262;-25
2022/01/08 06:15:46;;;;;;;;;;;;;;;;;;5015917;28;19940;-25
2022/01/08 06:18:12;;;;;;;;;;;;;;;;;;5017250;28;19914;-26
2022/01/08 06:20:38;;;;;;;;;;;;;;;;;;5017018;28;20245;-25
2022/01/08 06:23:04;;;;;;;;;;;;;;;;;;5016925;28;19963;-25
2022/01/08 06:25:30;;;;;;;;;;;;;;;;;;5017085;28;19917;-25
2022/01/08 06:27:58;;;;;;;;;;;;;;;;;;5015950;28;20230;-24
2022/01/08 06:30:24;;;;;;;;;;;;;;;;;;5016963;28;19996;-25
2022/01/08 06:32:50;;;;;;;;;;;;;;;;;;5016882;28;20027;-24
2022/01/08 06:35:20;;;;;;;;;;;;;;;;;;5015757;28;20317;-25
2022/01/08 06:37:52;;;;;;;;;;;;;;;;;;5016938;28;20276;-25
2022/01/08 06:40:19;;;;;;;;;;;;;;;;;;5016714;28;19964;-24
2022/01/08 06:42:45;;;;;;;;;;;;;;;;;;5016787;28;19921;-25
2022/01/08 06:45:11;;;;;;;;;;;;;;;;;;5016479;28;20403;-25
2022/01/08 06:47:39;;;;;;;;;;;;;;;;;;5016963;28;20300;-24
2022/01/08 06:50:08;;;;;;;;;;;;;;;;;;5016415;28;19913;-25
2022/01/08 06:52:34;;;;;;;;;;;;;;;;;;5016660;28;19920;-24
2022/01/08 06:55:02;;;;;;;;;;;;;;;;;;5016367;28;19914;-24
2022/01/08 06:57:30;;;;;;;;;;;;;;;;;;5015688;28;19917;-24
2022/01/08 06:59:56;;;;;;;;;;;;;;;;;;5015717;28;19921;-26
2022/01/08 07:02:23;;;;;;;;;;;;;;;;;;5015839;28;19914;-25
2022/01/08 07:04:49;;;;;;;;;;;;;;;;;;5016395;28;19922;-25
2022/01/08 07:07:15;;;;;;;;;;;;;;;;;;5016001;28;19919;-25
2022/01/08 07:09:42;;;;;;;;;;;;;;;;;;5015987;28;19913;-25
2022/01/08 07:12:08;;;;;;;;;;;;;;;;;;5015134;28;19909;-26
2022/01/08 07:14:36;;;;;;;;;;;;;;;;;;5016533;28;19941;-26
2022/01/08 07:17:02;;;;;;;;;;;;;;;;;;5015568;28;19996;-24
2022/01/08 07:19:28;;;;;;;;;;;;;;;;;;5016030;28;19913;-24
2022/01/08 07:21:55;;;;;;;;;;;;;;;;;;5015870;28;19913;-25
2022/01/08 07:24:22;;;;;;;;;;;;;;;;;;5015897;28;19952;-25
2022/01/08 07:26:50;;;;;;;;;;;;;;;;;;5015406;28;21236;-25
2022/01/08 07:29:18;;;;;;;;;;;;;;;;;;5015979;28;19909;-25
2022/01/08 07:31:44;;;;;;;;;;;;;;;;;;5015765;28;20003;-25
2022/01/08 07:34:11;;;;;;;;;;;;;;;;;;5015549;28;19994;-25
2022/01/08 07:36:39;;;;;;;;;;;;;;;;;;5015610;28;20229;-26
2022/01/08 07:39:05;;;;;;;;;;;;;;;;;;5015637;28;19972;-25
2022/01/08 07:41:31;;;;;;;;;;;;;;;;;;5015762;28;19916;-25
2022/01/08 07:43:59;;;;;;;;;;;;;;;;;;5014360;28;20012;-25
2022/01/08 07:46:25;;;;;;;;;;;;;;;;;;5015516;28;19917;-25
2022/01/08 07:48:53;;;;;;;;;;;;;;;;;;5015898;28;20000;-25
2022/01/08 07:51:19;;;;;;;;;;;;;;;;;;5015607;28;19918;-25
2022/01/08 07:53:45;;;;;;;;;;;;;;;;;;5015275;28;19981;-25
2022/01/08 07:56:11;;;;;;;;;;;;;;;;;;5013591;28;19921;-25
2022/01/08 07:58:37;;;;;;;;;;;;;;;;;;5014895;28;19916;-26
2022/01/08 08:01:05;;;;;;;;;;;;;;;;;;5014722;28;20103;-25
2022/01/08 08:03:32;;;;;;;;;;;;;;;;;;5014342;28;19925;-25
2022/01/08 08:06:00;;;;;;;;;;;;;;;;;;5014508;28;19914;-25
2022/01/08 08:08:26;;;;;;;;;;;;;;;;;;5015917;28;20344;-28
2022/01/08 08:10:54;;;;;;;;;;;;;;;;;;5014364;28;19917;-25
2022/01/08 08:13:20;;;;;;;;;;;;;;;;;;5015223;28;19909;-25
2022/01/08 08:15:48;;;;;;;;;;;;;;;;;;5014254;28;20356;-26
2022/01/08 08:24:03;;;;;;;;;;;;;;;;;;5013913;28;19972;-27
2022/01/08 08:26:29;;;;;;;;;;;;;;;;;;5014783;28;20052;-27
2022/01/08 08:28:56;;;;;;;;;;;;;;;;;;5013979;28;20385;-26
2022/01/08 08:31:22;;;;;;;;;;;;;;;;;;5013537;28;19920;-26
2022/01/08 08:33:48;;;;;;;;;;;;;;;;;;5013292;28;19923;-27
2022/01/08 08:36:16;;;;;;;;;;;;;;;;;;5014756;28;19979;-27
2022/01/08 08:38:42;;;;;;;;;;;;;;;;;;5014602;28;19943;-26
2022/01/08 08:41:09;;;;;;;;;;;;;;;;;;5014830;28;19913;-26
2022/01/08 08:43:35;;;;;;;;;;;;;;;;;;5014598;28;19928;-26
2022/01/08 08:46:01;;;;;;;;;;;;;;;;;;5014556;28;19977;-26
2022/01/08 08:48:30;;;;;;;;;;;;;;;;;;5014615;28;19909;-26
2022/01/08 08:50:56;;;;;;;;;;;;;;;;;;5014524;28;20244;-26
2022/01/08 08:53:23;;;;;;;;;;;;;;;;;;5013526;28;19980;-26
2022/01/08 08:55:51;;;;;;;;;;;;;;;;;;5014288;28;19924;-26
2022/01/08 08:58:17;;;;;;;;;;;;;;;;;;5014752;28;20008;-26
2022/01/08 09:00:43;;;;;;;;;;;;;;;;;;5014457;28;20009;-26
2022/01/08 09:03:12;;;;;;;;;;;;;;;;;;5014164;28;19910;-26
2022/01/08 09:05:38;;;;;;;;;;;;;;;;;;5014193;28;19922;-26
2022/01/08 09:08:04;;;;;;;;;;;;;;;;;;5015047;28;19921;-26
2022/01/08 09:10:33;;;;;;;;;;;;;;;;;;5014465;28;19913;-26
2022/01/08 09:12:59;;;;;;;;;;;;;;;;;;5014408;28;20391;-26
2022/01/08 09:15:26;;;;;;;;;;;;;;;;;;5014854;28;19936;-26
2022/01/08 09:17:52;;;;;;;;;;;;;;;;;;5014353;28;19992;-26
2022/01/08 09:20:18;;;;;;;;;;;;;;;;;;5014159;28;20004;-27
2022/01/08 09:22:46;;;;;;;;;;;;;;;;;;5013959;28;19918;-26
2022/01/08 09:25:15;;;;;;;;;;;;;;;;;;5013626;28;19914;-26
2022/01/08 09:27:41;;;;;;;;;;;;;;;;;;5013748;28;20008;-26
2022/01/08 09:30:07;;;;;;;;;;;;;;;;;;5013546;28;19913;-26
2022/01/08 09:32:33;;;;;;;;;;;;;;;;;;5012376;28;19930;-26
2022/01/08 09:34:59;;;;;;;;;;;;;;;;;;5014564;28;19909;-26
2022/01/08 09:37:28;;;;;;;;;;;;;;;;;;5017291;28;20376;-26
2022/01/08 09:39:54;;;;;;;;;;;;;;;;;;5017219;28;19917;-26
2022/01/08 09:42:20;;;;;;;;;;;;;;;;;;5017028;28;19914;-27
2022/01/08 09:44:48;;;;;;;;;;;;;;;;;;5015920;28;20012;-26
2022/01/08 09:47:14;;;;;;;;;;;;;;;;;;5017060;28;19939;-26
2022/01/08 09:49:42;;;;;;;;;;;;;;;;;;5017058;28;20335;-26
2022/01/08 09:52:09;;;;;;;;;;;;;;;;;;5016761;28;20367;-25
2022/01/08 09:54:35;;;;;;;;;;;;;;;;;;5016937;28;20225;-26
2022/01/08 09:57:03;;;;;;;;;;;;;;;;;;5016666;28;19922;-25
2022/01/08 09:59:31;;;;;;;;;;;;;;;;;;5016997;28;19960;-25
2022/01/08 10:01:58;;;;;;;;;;;;;;;;;;5016666;28;19916;-26
2022/01/08 10:04:25;;;;;;;;;;;;;;;;;;5015764;28;19918;-25
2022/01/08 10:06:53;;;;;;;;;;;;;;;;;;5017149;28;19975;-25
2022/01/08 10:09:19;;;;;;;;;;;;;;;;;;5017590;28;19916;-25
2022/01/08 10:11:46;;;;;;;;;;;;;;;;;;5017184;28;19913;-25
2022/01/08 10:14:27;;;;;;;;;;;;;;;;;;5017914;28;19917;-25
2022/01/08 10:19:39;;;;;;;;;;;;;;;;;;5017309;28;19972;-25
2022/01/08 10:22:05;;;;;;;;;;;;;;;;;;5017300;28;19949;-25
2022/01/08 10:24:31;;;;;;;;;;;;;;;;;;5017092;28;20275;-26
2022/01/08 10:26:57;;;;;;;;;;;;;;;;;;5017427;28;19929;-25
2022/01/08 10:29:23;;;;;;;;;;;;;;;;;;5015891;28;19910;-25
2022/01/08 10:31:50;;;;;;;;;;;;;;;;;;5015679;28;19920;-25
2022/01/08 10:34:21;;;;;;;;;;;;;;;;;;5016949;28;19923;-26
2022/01/08 10:36:50;;;;;;;;;;;;;;;;;;5016821;28;19957;-25
2022/01/08 10:39:16;;;;;;;;;;;;;;;;;;5015894;28;19921;-25
2022/01/08 10:41:42;;;;;;;;;;;;;;;;;;5015816;28;19921;-26
2022/01/08 10:44:12;;;;;;;;;;;;;;;;;;5016536;28;19948;-25
2022/01/08 10:46:41;;;;;;;;;;;;;;;;;;5015767;28;20295;-26
2022/01/08 10:49:07;;;;;;;;;;;;;;;;;;5015627;28;20337;-26
2022/01/08 10:51:34;;;;;;;;;;;;;;;;;;5016608;28;20349;-26
2022/01/08 10:54:00;;;;;;;;;;;;;;;;;;5016591;28;19914;-24
2022/01/08 10:56:27;;;;;;;;;;;;;;;;;;5016368;28;19921;-25
2022/01/08 10:58:56;;;;;;;;;;;;;;;;;;5016552;28;19913;-24
2022/01/08 11:01:22;;;;;;;;;;;;;;;;;;5016664;28;19913;-25
2022/01/08 11:03:54;;;;;;;;;;;;;;;;;;5015636;28;19933;-25
2022/01/08 11:09:13;;;;;;;;;;;;;;;;;;5016315;28;20264;-25
2022/01/08 11:11:39;;;;;;;;;;;;;;;;;;5015979;28;20004;-25
2022/01/08 11:14:08;;;;;;;;;;;;;;;;;;5016110;28;19914;-25
2022/01/08 11:16:36;;;;;;;;;;;;;;;;;;5015776;28;20324;-25
2022/01/08 11:19:02;;;;;;;;;;;;;;;;;;5016105;28;20340;-25
2022/01/08 11:21:30;;;;;;;;;;;;;;;;;;5016094;28;19913;-25
2022/01/08 11:23:56;;;;;;;;;;;;;;;;;;5014938;28;19917;-25
2022/01/08 11:29:13;;;;;;;;;;;;;;;;;;5016260;28;19940;-25
2022/01/08 11:31:41;;;;;;;;;;;;;;;;;;5015938;28;19924;-25
2022/01/08 11:34:10;;;;;;;;;;;;;;;;;;5014770;28;19956;-25
2022/01/08 11:36:36;;;;;;;;;;;;;;;;;;5015435;28;19914;-25
2022/01/08 11:39:03;;;;;;;;;;;;;;;;;;5015473;28;19913;-25
2022/01/08 11:41:30;;;;;;;;;;;;;;;;;;5015938;28;19928;-25
2022/01/08 11:46:47;;;;;;;;;;;;;;;;;;5015808;28;19987;-25
2022/01/08 11:49:15;;;;;;;;;;;;;;;;;;5015861;28;20256;-25
2022/01/08 11:51:46;;;;;;;;;;;;;;;;;;5015512;28;19910;-25
2022/01/08 11:54:19;;;;;;;;;;;;;;;;;;5014587;28;19960;-25
2022/01/08 11:56:47;;;;;;;;;;;;;;;;;;5015271;28;19921;-26
2022/01/08 11:59:14;;;;;;;;;;;;;;;;;;5015330;28;20241;-25
2022/01/08 12:01:40;;;;;;;;;;;;;;;;;;5015468;28;19909;-26
2022/01/08 12:04:08;;;;;;;;;;;;;;;;;;5015299;28;19940;-26
2022/01/08 12:06:38;;;;;;;;;;;;;;;;;;5014438;28;19910;-26
2022/01/08 12:09:18;;;;;;;;;;;;;;;;;;5015775;28;19918;-26
2022/01/08 12:11:47;;;;;;;;;;;;;;;;;;5014752;28;19913;-26
2022/01/08 12:14:13;;;;;;;;;;;;;;;;;;5015365;28;19913;-26
2022/01/08 12:16:39;;;;;;;;;;;;;;;;;;5015095;28;19917;-26
2022/01/08 12:19:05;;;;;;;;;;;;;;;;;;5015281;28;20234;-26
2022/01/08 12:21:33;;;;;;;;;;;;;;;;;;5015407;28;19939;-27
2022/01/08 12:24:02;;;;;;;;;;;;;;;;;;5014965;28;19918;-26
2022/01/08 12:26:29;;;;;;;;;;;;;;;;;;5014851;28;19918;-26
2022/01/08 12:28:56;;;;;;;;;;;;;;;;;;5014719;28;19913;-27
2022/01/08 12:31:23;;;;;;;;;;;;;;;;;;5015131;28;20345;-27
2022/01/08 12:33:49;;;;;;;;;;;;;;;;;;5014716;28;19921;-27
2022/01/08 12:36:16;;;;;;;;;;;;;;;;;;5014796;28;19911;-26
2022/01/08 12:38:44;;;;;;;;;;;;;;;;;;5014766;28;19913;-27
2022/01/08 12:41:13;;;;;;;;;;;;;;;;;;5014882;28;20371;-27
2022/01/08 12:43:43;;;;;;;;;;;;;;;;;;5014328;28;20352;-27
2022/01/08 12:46:09;;;;;;;;;;;;;;;;;;5014395;28;19913;-26
2022/01/08 12:48:36;;;;;;;;;;;;;;;;;;5014839;28;19962;-27
2022/01/08 12:51:06;;;;;;;;;;;;;;;;;;5014477;28;19972;-27
2022/01/08 12:53:32;;;;;;;;;;;;;;;;;;5014450;28;19913;-27
2022/01/08 12:55:58;;;;;;;;;;;;;;;;;;5014429;28;19943;-27
2022/01/08 12:58:29;;;;;;;;;;;;;;;;;;5014457;28;19909;-27
2022/01/08 13:00:55;;;;;;;;;;;;;;;;;;5014716;28;19914;-27
2022/01/08 13:03:21;;;;;;;;;;;;;;;;;;5014280;28;19913;-27
2022/01/08 13:05:48;;;;;;;;;;;;;;;;;;5014404;28;20341;-27
2022/01/08 13:08:14;;;;;;;;;;;;;;;;;;5014299;28;19910;-27
2022/01/08 13:10:40;;;;;;;;;;;;;;;;;;5015270;28;20362;-26
2022/01/08 13:13:09;;;;;;;;;;;;;;;;;;5018381;28;19960;-26
2022/01/08 13:15:35;;;;;;;;;;;;;;;;;;5018777;28;20237;-27
2022/01/08 13:18:01;;;;;;;;;;;;;;;;;;5018294;28;20260;-26
2022/01/08 13:20:29;;;;;;;;;;;;;;;;;;5018809;28;19914;-26
2022/01/08 13:22:56;;;;;;;;;;;;;;;;;;5018262;28;19909;-27
2022/01/08 13:25:24;;;;;;;;;;;;;;;;;;5018213;28;19913;-27
2022/01/08 13:27:50;;;;;;;;;;;;;;;;;;5018330;28;20296;-26
2022/01/08 13:30:16;;;;;;;;;;;;;;;;;;5017891;28;19923;-26
2022/01/08 13:32:44;;;;;;;;;;;;;;;;;;5017881;28;19909;-27
2022/01/08 13:35:12;;;;;;;;;;;;;;;;;;5017761;28;19914;-26
2022/01/08 13:37:38;;;;;;;;;;;;;;;;;;5018073;28;19909;-27
2022/01/08 13:40:04;;;;;;;;;;;;;;;;;;5017919;28;20343;-26
2022/01/08 13:42:31;;;;;;;;;;;;;;;;;;5017928;28;19964;-27
2022/01/08 13:44:59;;;;;;;;;;;;;;;;;;5017758;28;20012;-26
2022/01/08 13:47:25;;;;;;;;;;;;;;;;;;5017769;28;19963;-27
2022/01/08 13:49:52;;;;;;;;;;;;;;;;;;5017855;28;20007;-27
2022/01/08 13:55:09;;;;;;;;;;;;;;;;;;5017669;28;19927;-26
2022/01/08 14:20:33;;;;;;;;;;;;;;;;;;5016956;28;19939;-26
2022/01/08 14:22:59;;;;;;;;;;;;;;;;;;5016533;28;19945;-25
2022/01/08 14:25:25;;;;;;;;;;;;;;;;;;5017131;28;19917;-25
2022/01/08 14:27:54;;;;;;;;;;;;;;;;;;5017055;28;19910;-29
2022/01/08 14:30:20;;;;;;;;;;;;;;;;;;5017236;28;19975;-26
2022/01/08 14:32:47;;;;;;;;;;;;;;;;;;5016842;28;19916;-25
2022/01/08 14:35:13;;;;;;;;;;;;;;;;;;5015977;28;19914;-24
2022/01/08 14:37:39;;;;;;;;;;;;;;;;;;5015965;28;19934;-25
2022/01/08 14:40:05;;;;;;;;;;;;;;;;;;5017107;28;20352;-24
2022/01/08 14:42:36;;;;;;;;;;;;;;;;;;5016657;28;20368;-25
2022/01/08 14:45:02;;;;;;;;;;;;;;;;;;5016563;28;19917;-25
2022/01/08 14:47:28;;;;;;;;;;;;;;;;;;5016619;28;20238;-25
2022/01/08 14:49:54;;;;;;;;;;;;;;;;;;5015487;28;19913;-24
2022/01/08 14:52:21;;;;;;;;;;;;;;;;;;5017425;28;19917;-26
2022/01/08 14:54:47;;;;;;;;;;;;;;;;;;5016522;28;20005;-25
2022/01/08 14:57:13;;;;;;;;;;;;;;;;;;5016627;28;19921;-25
2022/01/08 14:59:41;;;;;;;;;;;;;;;;;;5016422;28;19940;-26
2022/01/08 15:02:10;;;;;;;;;;;;;;;;;;5016427;28;19914;-25
2022/01/08 15:04:36;;;;;;;;;;;;;;;;;;5016526;28;20020;-26
2022/01/08 15:07:04;;;;;;;;;;;;;;;;;;5016470;28;19996;-25
2022/01/08 15:09:32;;;;;;;;;;;;;;;;;;5016418;28;20323;-26
2022/01/08 15:11:58;;;;;;;;;;;;;;;;;;5016452;28;19999;-26
2022/01/08 15:14:25;;;;;;;;;;;;;;;;;;5016007;28;19913;-26
2022/01/08 15:16:51;;;;;;;;;;;;;;;;;;5016186;28;19921;-26
2022/01/08 15:19:17;;;;;;;;;;;;;;;;;;5016375;28;19992;-26
2022/01/08 15:21:45;;;;;;;;;;;;;;;;;;5016131;28;19920;-25
2022/01/08 15:24:11;;;;;;;;;;;;;;;;;;5016145;28;19956;-26
2022/01/08 15:26:38;;;;;;;;;;;;;;;;;;5016286;28;19924;-25
2022/01/08 15:29:06;;;;;;;;;;;;;;;;;;5015106;28;19914;-26
2022/01/08 15:31:32;;;;;;;;;;;;;;;;;;5016502;28;19917;-26
2022/01/08 15:33:58;;;;;;;;;;;;;;;;;;5015623;28;19924;-25
2022/01/08 15:36:24;;;;;;;;;;;;;;;;;;5015830;28;19921;-25
2022/01/08 15:38:50;;;;;;;;;;;;;;;;;;5015739;28;19909;-26
2022/01/08 15:41:16;;;;;;;;;;;;;;;;;;5015733;28;19914;-25
2022/01/08 15:43:42;;;;;;;;;;;;;;;;;;5015800;28;20253;-26
2022/01/08 15:46:08;;;;;;;;;;;;;;;;;;5015618;28;19928;-24
2022/01/08 15:48:34;;;;;;;;;;;;;;;;;;5015650;28;19909;-25
2022/01/08 15:51:01;;;;;;;;;;;;;;;;;;5015894;28;19939;-24
2022/01/08 15:53:27;;;;;;;;;;;;;;;;;;5015457;28;19917;-24
2022/01/08 15:55:53;;;;;;;;;;;;;;;;;;5014960;28;19982;-24
2022/01/08 15:58:19;;;;;;;;;;;;;;;;;;5014960;28;19917;-24
2022/01/08 16:00:45;;;;;;;;;;;;;;;;;;5015212;28;19968;-25
2022/01/08 16:03:11;;;;;;;;;;;;;;;;;;5015191;28;20287;-25
2022/01/08 16:05:37;;;;;;;;;;;;;;;;;;5014831;28;19914;-25
2022/01/08 16:08:04;;;;;;;;;;;;;;;;;;5014872;28;20001;-25
2022/01/08 16:10:30;;;;;;;;;;;;;;;;;;5013838;28;19913;-25
2022/01/08 16:12:56;;;;;;;;;;;;;;;;;;5014959;28;19936;-25
2022/01/08 16:15:22;;;;;;;;;;;;;;;;;;5015034;28;20012;-25
2022/01/08 16:17:48;;;;;;;;;;;;;;;;;;5014842;28;20314;-26
2022/01/08 16:20:14;;;;;;;;;;;;;;;;;;5014920;28;19920;-25
2022/01/08 16:22:40;;;;;;;;;;;;;;;;;;5014628;28;19983;-25
2022/01/08 16:25:06;;;;;;;;;;;;;;;;;;5014621;28;19949;-25
2022/01/08 16:27:33;;;;;;;;;;;;;;;;;;5014791;28;19910;-25
2022/01/08 16:29:59;;;;;;;;;;;;;;;;;;5013453;28;19925;-26
2022/01/08 16:32:25;;;;;;;;;;;;;;;;;;5014380;28;19910;-25
2022/01/08 16:34:51;;;;;;;;;;;;;;;;;;5014446;28;19921;-25
2022/01/08 16:37:17;;;;;;;;;;;;;;;;;;5014447;28;19909;-25
2022/01/08 16:39:43;;;;;;;;;;;;;;;;;;5014295;28;20344;-25
2022/01/08 16:42:09;;;;;;;;;;;;;;;;;;5014598;28;19992;-25
2022/01/08 16:44:35;;;;;;;;;;;;;;;;;;5012750;28;20396;-25
2022/01/08 16:47:03;;;;;;;;;;;;;;;;;;5014743;28;19913;-26
2022/01/08 16:49:29;;;;;;;;;;;;;;;;;;5014650;28;20395;-25
2022/01/08 16:51:55;;;;;;;;;;;;;;;;;;5015126;28;20360;-26
2022/01/08 16:54:21;;;;;;;;;;;;;;;;;;5014786;28;19924;-25
2022/01/08 16:56:47;;;;;;;;;;;;;;;;;;5014440;28;20372;-26
2022/01/08 16:59:14;;;;;;;;;;;;;;;;;;5014692;28;19913;-25
2022/01/08 17:01:40;;;;;;;;;;;;;;;;;;5015140;28;19948;-26
2022/01/08 17:04:06;;;;;;;;;;;;;;;;;;5014632;28;19918;-26
2022/01/08 17:06:34;;;;;;;;;;;;;;;;;;5014827;28;20291;-25
2022/01/08 17:09:00;;;;;;;;;;;;;;;;;;5014864;28;20402;-26
2022/01/08 17:11:26;;;;;;;;;;;;;;;;;;5014632;28;19913;-27
2022/01/08 17:13:52;;;;;;;;;;;;;;;;;;5014477;28;20403;-27
2022/01/08 17:16:18;;;;;;;;;;;;;;;;;;5014886;28;19917;-27
2022/01/08 17:18:44;;;;;;;;;;;;;;;;;;5014989;28;19910;-26
2022/01/08 17:21:10;;;;;;;;;;;;;;;;;;5014813;28;19936;-25
2022/01/08 17:23:36;;;;;;;;;;;;;;;;;;5014249;28;19968;-26
2022/01/08 17:26:02;;;;;;;;;;;;;;;;;;5014604;28;20008;-26
2022/01/08 17:28:28;;;;;;;;;;;;;;;;;;5014764;28;19914;-26
2022/01/08 17:30:54;;;;;;;;;;;;;;;;;;5013448;28;19920;-26
2022/01/08 17:33:20;;;;;;;;;;;;;;;;;;5014347;28;19913;-26
2022/01/08 17:35:46;;;;;;;;;;;;;;;;;;5014230;28;19913;-26
2022/01/08 17:38:12;;;;;;;;;;;;;;;;;;5014500;28;19914;-26
2022/01/08 17:40:39;;;;;;;;;;;;;;;;;;5014296;28;19914;-26
2022/01/08 17:43:05;;;;;;;;;;;;;;;;;;5014178;28;19913;-27
2022/01/08 17:45:31;;;;;;;;;;;;;;;;;;5014248;28;19924;-26